sensor_id;sensor_type;location;lat;lon;timestamp;pressure;altitude;pressure_sealevel;temperature;humidity
76660;BME280;65579;45.534;6.212;2023-02-01T00:00:03;99401.28;;;0.70;45.87
76660;BME280;65579;45.534;6.212;2023-02-01T00:02:27;99398.45;;;0.87;46.54
76660;BME280;65579;45.534;6.212;2023-02-01T00:04:52;99397.26;;;0.33;46.85
76660;BME280;65579;45.534;6.212;2023-02-01T00:07:17;99400.06;;;0.81;47.41
76660;BME280;65579;45.534;6.212;2023-02-01T00:09:43;99392.21;;;1.85;47.78
76660;BME280;65579;45.534;6.212;2023-02-01T00:12:09;99392.56;;;1.46;46.65
76660;BME280;65579;45.534;6.212;2023-02-01T00:14:34;99392.32;;;0.98;45.34
76660;BME280;65579;45.534;6.212;2023-02-01T00:17:00;99388.56;;;1.08;46.41
76660;BME280;65579;45.534;6.212;2023-02-01T00:19:25;99390.73;;;0.32;47.35
76660;BME280;65579;45.534;6.212;2023-02-01T00:21:50;99391.47;;;1.62;45.35
76660;BME280;65579;45.534;6.212;2023-02-01T00:24:16;99395.31;;;1.15;46.35
76660;BME280;65579;45.534;6.212;2023-02-01T00:26:43;99403.36;;;1.39;46.78
76660;BME280;65579;45.534;6.212;2023-02-01T00:29:11;99405.31;;;0.75;49.18
76660;BME280;65579;45.534;6.212;2023-02-01T00:31:32;99400.46;;;0.69;48.58
76660;BME280;65579;45.534;6.212;2023-02-01T00:33:58;99403.43;;;0.87;47.66
76660;BME280;65579;45.534;6.212;2023-02-01T00:36:22;99401.67;;;1.18;46.84
76660;BME280;65579;45.534;6.212;2023-02-01T00:38:47;99398.91;;;0.88;47.97
76660;BME280;65579;45.534;6.212;2023-02-01T00:41:15;99397.98;;;1.79;48.76
76660;BME280;65579;45.534;6.212;2023-02-01T00:43:40;99393.49;;;1.25;46.56
76660;BME280;65579;45.534;6.212;2023-02-01T00:46:04;99391.01;;;1.16;47.42
76660;BME280;65579;45.534;6.212;2023-02-01T00:48:30;99399.43;;;0.42;47.91
76660;BME280;65579;45.534;6.212;2023-02-01T00:50:59;99401.50;;;0.79;47.82
76660;BME280;65579;45.534;6.212;2023-02-01T00:53:21;99406.51;;;0.46;47.94
76660;BME280;65579;45.534;6.212;2023-02-01T00:55:47;99398.63;;;1.13;49.04
76660;BME280;65579;45.534;6.212;2023-02-01T00:58:12;99403.47;;;1.11;47.61
76660;BME280;65579;45.534;6.212;2023-02-01T01:03:04;99409.27;;;0.15;48.70
76660;BME280;65579;45.534;6.212;2023-02-01T01:05:29;99402.11;;;0.49;48.77
76660;BME280;65579;45.534;6.212;2023-02-01T01:07:54;99406.31;;;0.35;48.02
76660;BME280;65579;45.534;6.212;2023-02-01T01:10:20;99407.28;;;0.35;47.79
76660;BME280;65579;45.534;6.212;2023-02-01T01:12:46;99408.87;;;0.18;48.63
76660;BME280;65579;45.534;6.212;2023-02-01T01:15:11;99408.87;;;1.05;47.88
76660;BME280;65579;45.534;6.212;2023-02-01T01:17:36;99415.35;;;1.73;46.85
76660;BME280;65579;45.534;6.212;2023-02-01T01:20:01;99421.35;;;1.83;45.59
76660;BME280;65579;45.534;6.212;2023-02-01T01:22:27;99424.52;;;1.16;45.19
76660;BME280;65579;45.534;6.212;2023-02-01T01:24:52;99424.36;;;0.76;46.41
76660;BME280;65579;45.534;6.212;2023-02-01T01:27:18;99427.99;;;0.80;45.20
76660;BME280;65579;45.534;6.212;2023-02-01T01:29:43;99435.47;;;0.51;46.50
76660;BME280;65579;45.534;6.212;2023-02-01T01:32:08;99433.45;;;0.92;46.56
76660;BME280;65579;45.534;6.212;2023-02-01T01:34:34;99434.64;;;0.60;48.65
76660;BME280;65579;45.534;6.212;2023-02-01T01:37:01;99430.21;;;0.67;48.08
76660;BME280;65579;45.534;6.212;2023-02-01T01:39:25;99428.24;;;0.90;46.77
76660;BME280;65579;45.534;6.212;2023-02-01T01:41:50;99432.55;;;0.56;47.10
76660;BME280;65579;45.534;6.212;2023-02-01T01:46:40;99432.93;;;0.57;47.86
76660;BME280;65579;45.534;6.212;2023-02-01T01:49:12;99435.50;;;0.25;47.78
76660;BME280;65579;45.534;6.212;2023-02-01T01:51:35;99438.27;;;0.35;48.23
76660;BME280;65579;45.534;6.212;2023-02-01T01:54:01;99438.65;;;0.65;47.28
76660;BME280;65579;45.534;6.212;2023-02-01T01:56:22;99440.49;;;0.27;48.75
76660;BME280;65579;45.534;6.212;2023-02-01T01:58:47;99441.61;;;0.52;48.14
76660;BME280;65579;45.534;6.212;2023-02-01T02:01:12;99444.66;;;0.24;47.32
76660;BME280;65579;45.534;6.212;2023-02-01T02:03:42;99443.37;;;0.72;47.06
76660;BME280;65579;45.534;6.212;2023-02-01T02:06:09;99446.47;;;0.09;48.82
76660;BME280;65579;45.534;6.212;2023-02-01T02:08:29;99441.63;;;0.61;47.94
76660;BME280;65579;45.534;6.212;2023-02-01T02:10:54;99440.45;;;0.83;48.57
76660;BME280;65579;45.534;6.212;2023-02-01T02:13:19;99439.46;;;0.00;49.64
76660;BME280;65579;45.534;6.212;2023-02-01T02:15:54;99436.19;;;0.30;47.97
76660;BME280;65579;45.534;6.212;2023-02-01T02:18:15;99432.78;;;0.38;48.06
76660;BME280;65579;45.534;6.212;2023-02-01T02:20:47;99429.64;;;0.37;48.48
76660;BME280;65579;45.534;6.212;2023-02-01T02:27:59;99431.60;;;-0.46;48.31
76660;BME280;65579;45.534;6.212;2023-02-01T02:30:33;99433.84;;;-0.10;48.01
76660;BME280;65579;45.534;6.212;2023-02-01T02:33:03;99433.11;;;0.16;48.49
76660;BME280;65579;45.534;6.212;2023-02-01T02:35:16;99433.87;;;0.06;48.43
76660;BME280;65579;45.534;6.212;2023-02-01T02:37:39;99431.31;;;-0.05;48.21
76660;BME280;65579;45.534;6.212;2023-02-01T02:40:04;99428.46;;;-0.17;48.27
76660;BME280;65579;45.534;6.212;2023-02-01T02:42:29;99427.30;;;0.17;47.37
76660;BME280;65579;45.534;6.212;2023-02-01T02:44:54;99426.95;;;0.28;47.05
76660;BME280;65579;45.534;6.212;2023-02-01T02:47:21;99423.85;;;-0.31;47.62
76660;BME280;65579;45.534;6.212;2023-02-01T02:49:48;99418.48;;;0.48;49.17
76660;BME280;65579;45.534;6.212;2023-02-01T02:52:10;99414.53;;;0.31;47.39
76660;BME280;65579;45.534;6.212;2023-02-01T02:54:34;99408.52;;;0.40;46.79
76660;BME280;65579;45.534;6.212;2023-02-01T02:56:59;99411.54;;;0.48;46.66
76660;BME280;65579;45.534;6.212;2023-02-01T02:59:25;99407.57;;;0.06;47.52
76660;BME280;65579;45.534;6.212;2023-02-01T03:01:49;99408.59;;;-0.57;48.45
76660;BME280;65579;45.534;6.212;2023-02-01T03:04:15;99407.32;;;-0.41;49.28
76660;BME280;65579;45.534;6.212;2023-02-01T03:06:40;99406.28;;;-0.34;49.83
76660;BME280;65579;45.534;6.212;2023-02-01T03:09:12;99405.59;;;-0.34;48.19
76660;BME280;65579;45.534;6.212;2023-02-01T03:11:32;99405.30;;;0.30;48.37
76660;BME280;65579;45.534;6.212;2023-02-01T03:13:58;99405.32;;;0.07;48.60
76660;BME280;65579;45.534;6.212;2023-02-01T03:16:24;99409.38;;;-1.08;48.76
76660;BME280;65579;45.534;6.212;2023-02-01T03:18:49;99406.07;;;-0.26;49.41
76660;BME280;65579;45.534;6.212;2023-02-01T03:21:16;99409.36;;;-0.62;48.50
76660;BME280;65579;45.534;6.212;2023-02-01T03:23:37;99407.26;;;0.38;47.12
76660;BME280;65579;45.534;6.212;2023-02-01T03:26:04;99406.84;;;0.48;46.51
76660;BME280;65579;45.534;6.212;2023-02-01T03:28:29;99415.15;;;0.19;46.37
76660;BME280;65579;45.534;6.212;2023-02-01T03:30:53;99416.72;;;0.54;45.51
76660;BME280;65579;45.534;6.212;2023-02-01T03:33:21;99420.68;;;-0.10;46.74
76660;BME280;65579;45.534;6.212;2023-02-01T03:35:47;99416.50;;;0.40;48.92
76660;BME280;65579;45.534;6.212;2023-02-01T03:38:16;99414.26;;;-0.02;47.54
76660;BME280;65579;45.534;6.212;2023-02-01T03:40:36;99418.04;;;0.36;46.91
76660;BME280;65579;45.534;6.212;2023-02-01T03:43:00;99419.04;;;0.34;47.72
76660;BME280;65579;45.534;6.212;2023-02-01T03:45:29;99421.09;;;0.16;48.22
76660;BME280;65579;45.534;6.212;2023-02-01T03:47:54;99419.68;;;-0.67;48.97
76660;BME280;65579;45.534;6.212;2023-02-01T03:50:17;99420.02;;;-0.62;47.10
76660;BME280;65579;45.534;6.212;2023-02-01T03:52:43;99421.21;;;-0.83;48.29
76660;BME280;65579;45.534;6.212;2023-02-01T03:55:08;99417.21;;;-0.17;48.85
76660;BME280;65579;45.534;6.212;2023-02-01T03:57:35;99410.45;;;0.35;47.18
76660;BME280;65579;45.534;6.212;2023-02-01T04:00:05;99414.24;;;0.03;46.08
76660;BME280;65579;45.534;6.212;2023-02-01T04:02:25;99423.64;;;-1.13;48.32
76660;BME280;65579;45.534;6.212;2023-02-01T04:04:49;99423.26;;;-0.82;47.93
76660;BME280;65579;45.534;6.212;2023-02-01T04:07:14;99424.46;;;-0.35;48.58
76660;BME280;65579;45.534;6.212;2023-02-01T04:09:39;99423.91;;;-1.13;47.65
76660;BME280;65579;45.534;6.212;2023-02-01T04:12:05;99428.17;;;-0.36;48.52
76660;BME280;65579;45.534;6.212;2023-02-01T04:14:30;99426.68;;;-0.29;49.54
76660;BME280;65579;45.534;6.212;2023-02-01T04:16:55;99420.94;;;-0.31;48.16
76660;BME280;65579;45.534;6.212;2023-02-01T04:19:21;99420.64;;;-0.60;47.25
76660;BME280;65579;45.534;6.212;2023-02-01T04:21:47;99419.24;;;-0.50;46.98
76660;BME280;65579;45.534;6.212;2023-02-01T04:24:12;99422.91;;;0.04;46.24
76660;BME280;65579;45.534;6.212;2023-02-01T04:26:38;99428.72;;;-0.29;47.13
76660;BME280;65579;45.534;6.212;2023-02-01T04:29:03;99429.20;;;-0.37;47.42
76660;BME280;65579;45.534;6.212;2023-02-01T04:31:29;99429.65;;;0.13;47.63
76660;BME280;65579;45.534;6.212;2023-02-01T04:33:55;99429.88;;;0.24;46.57
76660;BME280;65579;45.534;6.212;2023-02-01T04:36:20;99431.18;;;-0.24;48.73
76660;BME280;65579;45.534;6.212;2023-02-01T04:38:45;99433.21;;;-0.10;47.05
76660;BME280;65579;45.534;6.212;2023-02-01T04:41:11;99432.33;;;-1.00;47.70
76660;BME280;65579;45.534;6.212;2023-02-01T04:43:36;99427.63;;;-1.58;50.64
76660;BME280;65579;45.534;6.212;2023-02-01T04:46:02;99426.16;;;-1.15;49.51
76660;BME280;65579;45.534;6.212;2023-02-01T04:48:28;99430.59;;;-0.43;47.63
76660;BME280;65579;45.534;6.212;2023-02-01T04:50:53;99438.18;;;-0.74;48.53
76660;BME280;65579;45.534;6.212;2023-02-01T04:53:19;99436.44;;;-0.21;46.82
76660;BME280;65579;45.534;6.212;2023-02-01T04:55:47;99438.48;;;-0.53;46.93
76660;BME280;65579;45.534;6.212;2023-02-01T04:58:10;99436.46;;;-0.47;47.03
76660;BME280;65579;45.534;6.212;2023-02-01T05:00:35;99432.00;;;-1.18;49.73
76660;BME280;65579;45.534;6.212;2023-02-01T05:03:01;99427.55;;;0.15;48.47
76660;BME280;65579;45.534;6.212;2023-02-01T05:05:27;99427.72;;;-0.31;46.04
76660;BME280;65579;45.534;6.212;2023-02-01T05:07:52;99428.68;;;-0.57;46.77
76660;BME280;65579;45.534;6.212;2023-02-01T05:10:18;99429.21;;;-1.13;48.00
76660;BME280;65579;45.534;6.212;2023-02-01T05:12:43;99430.78;;;-0.71;49.20
76660;BME280;65579;45.534;6.212;2023-02-01T05:15:09;99429.60;;;-0.90;47.54
76660;BME280;65579;45.534;6.212;2023-02-01T05:17:34;99432.56;;;-0.56;47.76
76660;BME280;65579;45.534;6.212;2023-02-01T05:20:00;99433.05;;;-0.79;47.47
76660;BME280;65579;45.534;6.212;2023-02-01T05:22:25;99434.77;;;-0.19;47.20
76660;BME280;65579;45.534;6.212;2023-02-01T05:24:51;99438.53;;;-0.17;47.24
76660;BME280;65579;45.534;6.212;2023-02-01T05:27:17;99440.20;;;-0.84;48.25
76660;BME280;65579;45.534;6.212;2023-02-01T05:29:42;99446.68;;;-0.98;49.50
76660;BME280;65579;45.534;6.212;2023-02-01T05:32:10;99452.00;;;-2.31;52.56
76660;BME280;65579;45.534;6.212;2023-02-01T05:34:33;99457.81;;;-2.14;51.07
76660;BME280;65579;45.534;6.212;2023-02-01T05:36:59;99453.67;;;-1.11;51.10
76660;BME280;65579;45.534;6.212;2023-02-01T05:39:25;99450.92;;;-1.08;50.40
76660;BME280;65579;45.534;6.212;2023-02-01T05:41:50;99449.06;;;-1.48;50.20
76660;BME280;65579;45.534;6.212;2023-02-01T05:44:15;99448.24;;;-1.18;49.36
76660;BME280;65579;45.534;6.212;2023-02-01T05:46:41;99447.91;;;-0.38;50.40
76660;BME280;65579;45.534;6.212;2023-02-01T05:49:07;99446.19;;;-0.02;47.79
76660;BME280;65579;45.534;6.212;2023-02-01T05:51:32;99449.51;;;-0.92;48.08
76660;BME280;65579;45.534;6.212;2023-02-01T05:53:58;99457.20;;;-1.23;49.65
76660;BME280;65579;45.534;6.212;2023-02-01T05:56:24;99459.23;;;-2.51;52.97
76660;BME280;65579;45.534;6.212;2023-02-01T05:58:49;99460.84;;;-1.93;53.18
76660;BME280;65579;45.534;6.212;2023-02-01T06:01:15;99461.28;;;-1.74;50.85
76660;BME280;65579;45.534;6.212;2023-02-01T06:03:40;99465.57;;;-2.25;50.23
76660;BME280;65579;45.534;6.212;2023-02-01T06:06:06;99462.70;;;-1.44;51.89
76660;BME280;65579;45.534;6.212;2023-02-01T06:08:31;99462.75;;;-1.39;48.10
76660;BME280;65579;45.534;6.212;2023-02-01T06:10:58;99465.40;;;-1.19;47.27
76660;BME280;65579;45.534;6.212;2023-02-01T06:13:22;99466.94;;;-1.22;47.36
76660;BME280;65579;45.534;6.212;2023-02-01T06:15:48;99467.36;;;-1.57;47.75
76660;BME280;65579;45.534;6.212;2023-02-01T06:18:13;99463.66;;;-1.91;48.76
76660;BME280;65579;45.534;6.212;2023-02-01T06:20:39;99461.62;;;-1.04;48.61
76660;BME280;65579;45.534;6.212;2023-02-01T06:23:04;99461.55;;;-0.87;47.74
76660;BME280;65579;45.534;6.212;2023-02-01T06:25:29;99461.28;;;-1.15;46.75
76660;BME280;65579;45.534;6.212;2023-02-01T06:27:55;99460.67;;;-1.34;48.67
76660;BME280;65579;45.534;6.212;2023-02-01T06:30:21;99461.81;;;-0.52;49.38
76660;BME280;65579;45.534;6.212;2023-02-01T06:32:51;99455.78;;;-0.24;47.95
76660;BME280;65579;45.534;6.212;2023-02-01T06:35:11;99454.81;;;-0.16;47.08
76660;BME280;65579;45.534;6.212;2023-02-01T06:37:37;99457.29;;;-1.47;46.82
76660;BME280;65579;45.534;6.212;2023-02-01T06:40:03;99461.89;;;-1.54;48.55
76660;BME280;65579;45.534;6.212;2023-02-01T06:42:28;99461.26;;;-2.01;47.16
76660;BME280;65579;45.534;6.212;2023-02-01T06:44:54;99464.78;;;-1.68;51.14
76660;BME280;65579;45.534;6.212;2023-02-01T06:47:19;99469.18;;;-0.81;49.59
76660;BME280;65579;45.534;6.212;2023-02-01T06:49:44;99473.01;;;-1.82;47.82
76660;BME280;65579;45.534;6.212;2023-02-01T06:52:10;99469.76;;;-0.87;47.98
76660;BME280;65579;45.534;6.212;2023-02-01T06:54:35;99473.85;;;-0.60;47.51
76660;BME280;65579;45.534;6.212;2023-02-01T06:57:01;99483.08;;;-1.54;48.51
76660;BME280;65579;45.534;6.212;2023-02-01T06:59:27;99490.90;;;-2.20;52.13
76660;BME280;65579;45.534;6.212;2023-02-01T07:01:52;99496.51;;;-1.42;47.91
76660;BME280;65579;45.534;6.212;2023-02-01T07:04:17;99502.74;;;-1.57;48.81
76660;BME280;65579;45.534;6.212;2023-02-01T07:06:42;99499.07;;;-1.05;46.85
76660;BME280;65579;45.534;6.212;2023-02-01T07:09:08;99500.51;;;-0.98;46.80
76660;BME280;65579;45.534;6.212;2023-02-01T07:11:34;99506.74;;;-1.52;46.86
76660;BME280;65579;45.534;6.212;2023-02-01T07:13:59;99508.80;;;-1.70;48.06
76660;BME280;65579;45.534;6.212;2023-02-01T07:45:30;99565.37;;;-1.07;48.04
76660;BME280;65579;45.534;6.212;2023-02-01T07:52:47;99582.44;;;-0.28;48.76
76660;BME280;65579;45.534;6.212;2023-02-01T07:57:38;99604.51;;;-1.41;49.68
76660;BME280;65579;45.534;6.212;2023-02-01T08:00:08;99606.28;;;-1.10;49.52
76660;BME280;65579;45.534;6.212;2023-02-01T08:02:28;99606.92;;;-1.54;51.45
76660;BME280;65579;45.534;6.212;2023-02-01T08:04:55;99610.30;;;-0.12;48.72
76660;BME280;65579;45.534;6.212;2023-02-01T08:07:19;99617.64;;;-0.08;47.87
76660;BME280;65579;45.534;6.212;2023-02-01T08:09:57;99615.73;;;-0.13;47.02
76660;BME280;65579;45.534;6.212;2023-02-01T08:12:10;99604.34;;;-0.78;49.50
76660;BME280;65579;45.534;6.212;2023-02-01T08:14:40;99602.24;;;-1.17;50.61
76660;BME280;65579;45.534;6.212;2023-02-01T08:17:01;99599.89;;;-0.92;50.64
76660;BME280;65579;45.534;6.212;2023-02-01T08:19:26;99600.68;;;-0.04;48.50
76660;BME280;65579;45.534;6.212;2023-02-01T08:21:53;99604.58;;;0.38;47.83
76660;BME280;65579;45.534;6.212;2023-02-01T08:24:17;99592.40;;;0.23;47.63
76660;BME280;65579;45.534;6.212;2023-02-01T08:26:44;99587.31;;;-0.02;48.18
76660;BME280;65579;45.534;6.212;2023-02-01T08:31:34;99579.45;;;-0.09;49.11
76660;BME280;65579;45.534;6.212;2023-02-01T08:34:02;99581.02;;;-0.23;49.19
76660;BME280;65579;45.534;6.212;2023-02-01T08:36:26;99580.99;;;-0.15;49.79
76660;BME280;65579;45.534;6.212;2023-02-01T08:38:51;99570.46;;;-0.15;50.25
76660;BME280;65579;45.534;6.212;2023-02-01T08:41:18;99573.76;;;0.25;49.43
76660;BME280;65579;45.534;6.212;2023-02-01T08:43:44;99584.26;;;0.92;49.47
76660;BME280;65579;45.534;6.212;2023-02-01T08:46:08;99578.88;;;-0.76;50.08
76660;BME280;65579;45.534;6.212;2023-02-01T08:48:32;99577.66;;;0.39;50.25
76660;BME280;65579;45.534;6.212;2023-02-01T08:51:01;99581.10;;;0.99;50.24
76660;BME280;65579;45.534;6.212;2023-02-01T08:53:23;99578.48;;;1.40;48.77
76660;BME280;65579;45.534;6.212;2023-02-01T08:58:21;99583.91;;;0.80;48.64
76660;BME280;65579;45.534;6.212;2023-02-01T09:00:45;99586.37;;;0.94;48.39
76660;BME280;65579;45.534;6.212;2023-02-01T09:03:10;99574.78;;;0.47;49.49
76660;BME280;65579;45.534;6.212;2023-02-01T09:05:32;99565.58;;;0.03;51.42
76660;BME280;65579;45.534;6.212;2023-02-01T09:07:57;99563.34;;;-0.02;51.14
76660;BME280;65579;45.534;6.212;2023-02-01T09:10:22;99564.30;;;0.92;50.07
76660;BME280;65579;45.534;6.212;2023-02-01T09:12:47;99557.83;;;1.14;49.41
76660;BME280;65579;45.534;6.212;2023-02-01T09:15:12;99560.69;;;1.18;48.33
76660;BME280;65579;45.534;6.212;2023-02-01T09:17:38;99567.94;;;0.55;49.29
76660;BME280;65579;45.534;6.212;2023-02-01T09:20:04;99568.46;;;0.56;49.11
76660;BME280;65579;45.534;6.212;2023-02-01T09:22:28;99556.52;;;1.32;48.81
76660;BME280;65579;45.534;6.212;2023-02-01T09:24:54;99556.61;;;1.07;48.39
76660;BME280;65579;45.534;6.212;2023-02-01T09:27:20;99561.01;;;2.04;46.40
76660;BME280;65579;45.534;6.212;2023-02-01T09:29:45;99573.54;;;1.30;47.53
76660;BME280;65579;45.534;6.212;2023-02-01T09:32:10;99584.06;;;0.54;51.72
76660;BME280;65579;45.534;6.212;2023-02-01T09:34:36;99577.03;;;1.04;48.58
76660;BME280;65579;45.534;6.212;2023-02-01T09:37:01;99565.08;;;0.64;48.68
76660;BME280;65579;45.534;6.212;2023-02-01T09:39:27;99559.26;;;1.16;48.32
76660;BME280;65579;45.534;6.212;2023-02-01T09:42:00;99561.26;;;1.06;48.46
76660;BME280;65579;45.534;6.212;2023-02-01T09:44:30;99562.00;;;1.40;46.81
76660;BME280;65579;45.534;6.212;2023-02-01T09:46:44;99566.90;;;1.69;47.53
76660;BME280;65579;45.534;6.212;2023-02-01T09:49:13;99572.10;;;1.28;50.24
76660;BME280;65579;45.534;6.212;2023-02-01T09:51:40;99569.66;;;0.72;48.18
76660;BME280;65579;45.534;6.212;2023-02-01T09:54:05;99571.53;;;1.26;48.40
76660;BME280;65579;45.534;6.212;2023-02-01T09:56:29;99573.38;;;2.21;49.60
76660;BME280;65579;45.534;6.212;2023-02-01T09:58:58;99582.90;;;1.75;46.39
76660;BME280;65579;45.534;6.212;2023-02-01T10:01:21;99601.04;;;1.39;47.46
76660;BME280;65579;45.534;6.212;2023-02-01T10:03:42;99612.48;;;1.55;48.06
76660;BME280;65579;45.534;6.212;2023-02-01T10:08:44;99626.09;;;1.24;48.13
76660;BME280;65579;45.534;6.212;2023-02-01T10:11:03;99633.69;;;0.92;48.68
76660;BME280;65579;45.534;6.212;2023-02-01T10:13:38;99634.30;;;1.21;47.29
76660;BME280;65579;45.534;6.212;2023-02-01T10:15:58;99638.23;;;1.11;47.22
76660;BME280;65579;45.534;6.212;2023-02-01T10:18:25;99631.71;;;1.63;47.33
76660;BME280;65579;45.534;6.212;2023-02-01T10:20:52;99626.14;;;0.82;48.14
76660;BME280;65579;45.534;6.212;2023-02-01T10:23:11;99625.51;;;1.55;45.88
76660;BME280;65579;45.534;6.212;2023-02-01T10:25:38;99626.77;;;1.73;45.86
76660;BME280;65579;45.534;6.212;2023-02-01T10:27:57;99632.01;;;0.96;47.78
76660;BME280;65579;45.534;6.212;2023-02-01T10:30:24;99630.63;;;1.71;46.60
76660;BME280;65579;45.534;6.212;2023-02-01T10:32:49;99625.81;;;1.77;47.21
76660;BME280;65579;45.534;6.212;2023-02-01T10:35:22;99639.55;;;1.46;46.38
76660;BME280;65579;45.534;6.212;2023-02-01T10:37:41;99644.86;;;1.70;47.27
76660;BME280;65579;45.534;6.212;2023-02-01T10:40:14;99629.94;;;2.93;45.77
76660;BME280;65579;45.534;6.212;2023-02-01T10:42:31;99628.37;;;2.68;46.45
76660;BME280;65579;45.534;6.212;2023-02-01T10:44:59;99628.51;;;2.83;45.27
76660;BME280;65579;45.534;6.212;2023-02-01T10:47:20;99628.44;;;2.24;45.95
76660;BME280;65579;45.534;6.212;2023-02-01T10:49:54;99626.35;;;2.49;45.61
76660;BME280;65579;45.534;6.212;2023-02-01T10:52:14;99619.75;;;2.43;45.35
76660;BME280;65579;45.534;6.212;2023-02-01T10:54:38;99615.24;;;2.98;45.30
76660;BME280;65579;45.534;6.212;2023-02-01T10:57:02;99610.04;;;2.20;45.53
76660;BME280;65579;45.534;6.212;2023-02-01T10:59:29;99607.52;;;2.61;44.57
76660;BME280;65579;45.534;6.212;2023-02-01T11:01:59;99603.37;;;2.54;43.83
76660;BME280;65579;45.534;6.212;2023-02-01T11:04:20;99602.40;;;3.34;46.03
76660;BME280;65579;45.534;6.212;2023-02-01T11:06:47;99597.17;;;3.23;46.62
76660;BME280;65579;45.534;6.212;2023-02-01T11:09:16;99594.27;;;2.99;45.10
76660;BME280;65579;45.534;6.212;2023-02-01T11:14:13;99585.65;;;3.12;44.58
76660;BME280;65579;45.534;6.212;2023-02-01T11:16:34;99576.56;;;3.35;43.98
76660;BME280;65579;45.534;6.212;2023-02-01T11:18:53;99570.53;;;3.15;43.80
76660;BME280;65579;45.534;6.212;2023-02-01T11:21:18;99565.95;;;3.15;44.10
76660;BME280;65579;45.534;6.212;2023-02-01T11:23:44;99558.36;;;3.73;43.53
76660;BME280;65579;45.534;6.212;2023-02-01T11:26:12;99549.20;;;3.94;42.74
76660;BME280;65579;45.534;6.212;2023-02-01T11:28:37;99537.41;;;3.88;42.59
76660;BME280;65579;45.534;6.212;2023-02-01T11:31:03;99529.84;;;3.94;45.74
76660;BME280;65579;45.534;6.212;2023-02-01T11:33:29;99521.19;;;4.41;44.92
76660;BME280;65579;45.534;6.212;2023-02-01T11:35:52;99514.84;;;4.28;43.45
76660;BME280;65579;45.534;6.212;2023-02-01T11:38:21;99505.42;;;3.74;42.32
76660;BME280;65579;45.534;6.212;2023-02-01T11:40:41;99498.37;;;3.82;42.12
76660;BME280;65579;45.534;6.212;2023-02-01T11:43:13;99495.08;;;4.19;41.58
76660;BME280;65579;45.534;6.212;2023-02-01T11:45:32;99490.31;;;4.25;42.05
76660;BME280;65579;45.534;6.212;2023-02-01T11:47:58;99492.89;;;4.30;42.20
76660;BME280;65579;45.534;6.212;2023-02-01T11:50:32;99485.21;;;5.00;41.57
76660;BME280;65579;45.534;6.212;2023-02-01T11:53:00;99490.00;;;4.76;42.52
76660;BME280;65579;45.534;6.212;2023-02-01T11:57:57;99481.04;;;4.83;42.52
76660;BME280;65579;45.534;6.212;2023-02-01T12:02:51;99464.48;;;4.73;41.61
76660;BME280;65579;45.534;6.212;2023-02-01T12:05:17;99460.20;;;4.84;41.44
76660;BME280;65579;45.534;6.212;2023-02-01T12:07:26;99463.65;;;4.43;41.24
76660;BME280;65579;45.534;6.212;2023-02-01T12:09:57;99460.48;;;4.57;42.20
76660;BME280;65579;45.534;6.212;2023-02-01T12:12:19;99450.39;;;4.60;41.84
76660;BME280;65579;45.534;6.212;2023-02-01T12:14:51;99434.99;;;5.04;43.89
76660;BME280;65579;45.534;6.212;2023-02-01T12:17:17;99423.51;;;4.82;43.02
76660;BME280;65579;45.534;6.212;2023-02-01T12:22:00;99412.45;;;5.07;42.77
76660;BME280;65579;45.534;6.212;2023-02-01T12:31:46;99393.07;;;5.59;43.70
76660;BME280;65579;45.534;6.212;2023-02-01T12:38:54;99382.59;;;6.40;42.97
76660;BME280;65579;45.534;6.212;2023-02-01T12:41:25;99376.91;;;6.26;42.40
76660;BME280;65579;45.534;6.212;2023-02-01T12:43:45;99375.71;;;6.33;39.67
76660;BME280;65579;45.534;6.212;2023-02-01T12:46:10;99377.85;;;5.85;40.45
76660;BME280;65579;45.534;6.212;2023-02-01T12:48:34;99378.77;;;6.29;38.16
76660;BME280;65579;45.534;6.212;2023-02-01T12:51:00;99382.64;;;5.95;38.11
76660;BME280;65579;45.534;6.212;2023-02-01T12:53:25;99388.44;;;5.97;38.62
76660;BME280;65579;45.534;6.212;2023-02-01T12:55:50;99389.79;;;5.85;40.11
76660;BME280;65579;45.534;6.212;2023-02-01T12:58:17;99387.78;;;6.41;40.06
76660;BME280;65579;45.534;6.212;2023-02-01T13:00:43;99381.35;;;6.21;42.39
76660;BME280;65579;45.534;6.212;2023-02-01T13:03:11;99375.80;;;6.44;40.28
76660;BME280;65579;45.534;6.212;2023-02-01T13:05:37;99367.93;;;6.07;38.52
76660;BME280;65579;45.534;6.212;2023-02-01T13:08:00;99361.40;;;6.33;38.67
76660;BME280;65579;45.534;6.212;2023-02-01T13:10:28;99363.09;;;5.73;40.16
76660;BME280;65579;45.534;6.212;2023-02-01T13:12:53;99360.35;;;6.50;43.03
76660;BME280;65579;45.534;6.212;2023-02-01T13:15:17;99357.02;;;6.28;42.66
76660;BME280;65579;45.534;6.212;2023-02-01T13:17:39;99353.94;;;6.45;38.96
76660;BME280;65579;45.534;6.212;2023-02-01T13:20:13;99352.71;;;6.50;37.34
76660;BME280;65579;45.534;6.212;2023-02-01T13:22:32;99357.92;;;6.52;36.94
76660;BME280;65579;45.534;6.212;2023-02-01T13:24:57;99359.02;;;6.20;37.05
76660;BME280;65579;45.534;6.212;2023-02-01T13:27:19;99355.30;;;6.29;39.74
76660;BME280;65579;45.534;6.212;2023-02-01T13:29:50;99351.05;;;6.98;41.06
76660;BME280;65579;45.534;6.212;2023-02-01T13:32:21;99352.56;;;7.23;41.80
76660;BME280;65579;45.534;6.212;2023-02-01T13:41:55;99341.41;;;7.55;36.75
76660;BME280;65579;45.534;6.212;2023-02-01T13:44:22;99338.54;;;6.72;36.92
76660;BME280;65579;45.534;6.212;2023-02-01T13:46:45;99341.08;;;7.09;40.81
76660;BME280;65579;45.534;6.212;2023-02-01T13:49:17;99338.58;;;7.30;41.18
76660;BME280;65579;45.534;6.212;2023-02-01T13:51:36;99337.78;;;7.45;50.07
76660;BME280;65579;45.534;6.212;2023-02-01T13:54:00;99335.68;;;7.32;42.78
76660;BME280;65579;45.534;6.212;2023-02-01T13:58:51;99336.43;;;7.95;47.37
76660;BME280;65579;45.534;6.212;2023-02-01T14:03:45;99337.14;;;7.22;44.07
76660;BME280;65579;45.534;6.212;2023-02-01T14:06:17;99341.60;;;8.04;47.57
76660;BME280;65579;45.534;6.212;2023-02-01T14:08:42;99342.99;;;7.58;42.49
76660;BME280;65579;45.534;6.212;2023-02-01T14:10:57;99342.11;;;7.94;45.12
76660;BME280;65579;45.534;6.212;2023-02-01T14:13:27;99339.99;;;8.32;43.63
76660;BME280;65579;45.534;6.212;2023-02-01T14:20:42;99348.85;;;7.97;42.70
76660;BME280;65579;45.534;6.212;2023-02-01T14:23:02;99346.60;;;7.54;38.60
76660;BME280;65579;45.534;6.212;2023-02-01T14:25:33;99343.93;;;7.90;43.20
76660;BME280;65579;45.534;6.212;2023-02-01T14:27:53;99346.27;;;8.23;41.57